BGJN

Ilulissat  Airport

Ilulissat, Greenland

BGJN 191650Z AUTO VRB04KT 9999NDV NCD M17/M27 Q1030

Observed Flight Rules
Nov-19 @ 16:50 UTC (59 minutes ago)
Unavailable
Wind Clouds
Variable at 4 knots
  • Clear skies
Temperatures Readings
Current -17°C / 1°F
Dewpoint -27°C / -17°F
Humidity 42%
Altimeter 30.41" Hg
Pressure 1030 hPa
Elevation 25
Observed Flight Rules
Nov-19 @ 16:50 UTC
(59 minutes ago)
UNK
Wind
Variable at 4 knots
Clouds
  • Clear skies
Temperature Dewpoint
-17°C / 1°F -27°C / -17°F
Humidity Altimeter Pressure
42% 30.41" Hg 1030 hPa